createdAt,value
2019-01-20T00:00:28.486Z,-20992.03
2019-01-20T00:02:56.735Z,-20984.44
2019-01-20T00:05:25.003Z,-20974.00
2019-01-20T00:07:53.264Z,-21014.33
2019-01-20T00:10:23.188Z,-20995.89
2019-01-20T00:12:51.458Z,-20995.89
2019-01-20T00:15:20.694Z,-21002.61
2019-01-20T00:17:48.970Z,-20999.60
2019-01-20T00:20:17.307Z,-20990.16
2019-01-20T00:22:45.571Z,-20994.46
2019-01-20T00:25:14.094Z,-20985.87
2019-01-20T00:27:42.367Z,-21001.75
2019-01-20T00:30:13.946Z,-20984.16
2019-01-20T00:32:42.190Z,-20995.45
2019-01-20T00:35:10.552Z,-20977.72
2019-01-20T00:37:38.818Z,-20972.14
2019-01-20T00:40:13.173Z,-20984.16
2019-01-20T00:42:41.531Z,-20970.56
2019-01-20T00:45:18.140Z,-20987.16
2019-01-20T00:47:46.492Z,-21000.46
2019-01-20T00:50:17.979Z,-21007.04
2019-01-20T00:52:46.322Z,-20987.59
2019-01-20T00:55:16.714Z,-21000.18
2019-01-20T00:57:45.215Z,-21007.61
2019-01-20T01:00:18.114Z,-20990.59
2019-01-20T01:02:46.444Z,-21002.75
2019-01-20T01:05:15.485Z,-21004.18
2019-01-20T01:07:43.892Z,-20976.14
2019-01-20T01:10:12.285Z,-20989.88
2019-01-20T01:12:41.493Z,-20982.01
2019-01-20T01:15:11.501Z,-20985.87
2019-01-20T01:17:39.747Z,-20999.89
2019-01-20T01:20:13.620Z,-20996.46
2019-01-20T01:22:41.856Z,-20999.46
2019-01-20T01:25:11.565Z,-21006.33
2019-01-20T01:27:39.907Z,-20996.46
2019-01-20T01:30:14.111Z,-21003.32
2019-01-20T01:32:42.368Z,-21002.18
2019-01-20T01:35:10.773Z,-20975.00
2019-01-20T01:37:39.043Z,-20975.00
2019-01-20T01:40:10.640Z,-20985.59
2019-01-20T01:42:39.019Z,-20980.73
2019-01-20T01:45:10.209Z,-20974.43
2019-01-20T01:47:38.525Z,-20968.41
2019-01-20T01:50:08.568Z,-20984.88
2019-01-20T01:52:36.823Z,-20984.73
2019-01-20T01:55:07.240Z,-21012.18
2019-01-20T01:57:35.574Z,-21001.61
2019-01-20T02:00:13.045Z,-20992.17
2019-01-20T02:02:41.305Z,-21005.75
2019-01-20T02:05:10.130Z,-21005.75
2019-01-20T02:07:38.396Z,-21001.61
2019-01-20T02:10:11.929Z,-20995.17
2019-01-20T02:12:40.205Z,-20984.59
2019-01-20T02:15:10.515Z,-21003.75
2019-01-20T02:17:38.774Z,-20996.61
2019-01-20T02:20:10.457Z,-20996.61
2019-01-20T02:22:38.718Z,-21006.04
2019-01-20T02:25:07.044Z,-20979.01
2019-01-20T02:27:35.293Z,-20976.71
2019-01-20T02:30:05.273Z,-20988.45
2019-01-20T02:32:35.149Z,-20982.44
2019-01-20T02:35:03.684Z,-20982.44
2019-01-20T02:37:31.956Z,-20979.01
2019-01-20T02:40:00.399Z,-20949.09
2019-01-20T02:42:32.008Z,-20949.09
2019-01-20T02:45:02.356Z,-20946.65
2019-01-20T02:47:30.635Z,-20971.28
2019-01-20T02:49:58.912Z,-20963.69
2019-01-20T02:52:27.185Z,-20978.29
2019-01-20T02:54:58.174Z,-20981.30
2019-01-20T02:57:26.418Z,-20983.73
2019-01-20T02:59:57.732Z,-20975.86
2019-01-20T03:02:25.984Z,-20987.16
2019-01-20T03:04:54.256Z,-20986.16
2019-01-20T03:07:22.610Z,-20974.14
2019-01-20T03:09:50.879Z,-20985.59
2019-01-20T03:12:19.125Z,-21005.04
2019-01-20T03:14:47.404Z,-20988.73
2019-01-20T03:17:15.656Z,-20992.17
2019-01-20T03:19:43.917Z,-20985.87
2019-01-20T03:22:15.022Z,-20985.87
2019-01-20T03:24:43.299Z,-20976.00
2019-01-20T03:27:11.555Z,-20981.87
2019-01-20T03:29:39.831Z,-20963.26
2019-01-20T03:32:08.100Z,-20972.43
2019-01-20T03:34:36.357Z,-20987.73
2019-01-20T03:37:04.723Z,-20987.73
2019-01-20T03:39:32.974Z,-20993.88
2019-01-20T03:42:01.258Z,-20988.16
2019-01-20T03:44:29.507Z,-20989.45
2019-01-20T03:46:57.830Z,-20989.31
2019-01-20T03:49:26.096Z,-20986.73
2019-01-20T03:51:54.367Z,-20988.45
2019-01-20T03:54:22.683Z,-20977.58
2019-01-20T03:56:50.970Z,-20972.43
2019-01-20T03:59:19.284Z,-20973.57
2019-01-20T04:01:47.667Z,-20971.71
2019-01-20T04:04:15.942Z,-20981.44
2019-01-20T04:06:44.192Z,-20979.43
2019-01-20T04:09:12.460Z,-20996.89
2019-01-20T04:11:40.728Z,-20996.89
2019-01-20T04:14:08.977Z,-21001.18
2019-01-20T04:16:37.353Z,-20990.16
2019-01-20T04:19:05.616Z,-20987.45
2019-01-20T04:21:33.885Z,-21002.46
2019-01-20T04:24:02.159Z,-20987.88
2019-01-20T04:26:30.407Z,-20999.32
2019-01-20T04:28:58.674Z,-21014.62
2019-01-20T04:31:26.919Z,-20983.44
2019-01-20T04:33:55.199Z,-20971.13
2019-01-20T04:36:23.473Z,-20981.16
2019-01-20T04:38:51.728Z,-20994.17
2019-01-20T04:41:20.014Z,-20994.17
2019-01-20T04:43:48.263Z,-20974.57
2019-01-20T04:46:16.536Z,-20987.73
2019-01-20T04:48:44.787Z,-20995.17
2019-01-20T04:51:13.048Z,-20991.89
2019-01-20T04:53:41.776Z,-20991.02
2019-01-20T04:56:10.087Z,-20992.88
2019-01-20T04:58:38.347Z,-20989.31
2019-01-20T05:01:06.619Z,-20979.86
2019-01-20T05:03:34.885Z,-20978.15
2019-01-20T05:06:03.465Z,-20976.86
2019-01-20T05:08:31.739Z,-20966.84
2019-01-20T05:11:00.001Z,-20974.14
2019-01-20T05:13:28.260Z,-20973.43
2019-01-20T05:15:56.518Z,-20971.71
2019-01-20T05:18:24.890Z,-20964.41
2019-01-20T05:20:53.164Z,-20970.13
2019-01-20T05:23:21.413Z,-20970.13
2019-01-20T05:25:49.705Z,-20980.15
2019-01-20T05:28:17.975Z,-20977.43
2019-01-20T05:30:46.287Z,-20967.84
2019-01-20T05:33:14.559Z,-20972.86
2019-01-20T05:35:42.807Z,-20976.43
2019-01-20T05:38:11.094Z,-20976.14
2019-01-20T05:40:39.346Z,-20967.13
2019-01-20T05:43:07.621Z,-20976.57
2019-01-20T05:45:35.871Z,-20990.02
2019-01-20T05:48:04.274Z,-20981.30
2019-01-20T05:50:32.553Z,-20978.01
2019-01-20T05:53:00.885Z,-20958.11
2019-01-20T05:55:29.143Z,-20958.11
2019-01-20T05:57:57.401Z,-20954.67
2019-01-20T06:00:27.794Z,-20951.52
2019-01-20T06:02:56.129Z,-20958.11
2019-01-20T06:05:24.373Z,-20958.11
2019-01-20T06:07:52.734Z,-20938.77
2019-01-20T06:10:21.079Z,-20970.28
2019-01-20T06:12:53.938Z,-20984.44
2019-01-20T06:15:21.160Z,-20984.44
2019-01-20T06:17:49.492Z,-20965.13
2019-01-20T06:20:18.274Z,-20950.52
2019-01-20T06:22:46.535Z,-20963.83
2019-01-20T06:25:14.921Z,-20958.97
2019-01-20T06:27:43.250Z,-20974.14
2019-01-20T06:30:20.588Z,-20970.85
2019-01-20T06:32:48.864Z,-20960.11
2019-01-20T06:35:17.140Z,-20958.97
2019-01-20T06:37:45.383Z,-20958.97
2019-01-20T06:40:13.723Z,-20953.81
2019-01-20T06:42:42.034Z,-20953.81
2019-01-20T06:45:13.300Z,-20955.10
2019-01-20T06:47:41.655Z,-20964.27
2019-01-20T06:50:12.453Z,-20966.27
2019-01-20T06:52:40.990Z,-20963.55
2019-01-20T06:55:10.903Z,-20965.27
2019-01-20T06:57:39.247Z,-20966.13
2019-01-20T07:00:18.906Z,-20962.12
2019-01-20T07:02:47.255Z,-20960.40
2019-01-20T07:05:16.191Z,-20960.40
2019-01-20T07:07:44.728Z,-20954.38
2019-01-20T07:10:15.117Z,-20965.41
2019-01-20T07:12:43.407Z,-20965.41
2019-01-20T07:15:14.332Z,-20974.57
2019-01-20T07:17:42.597Z,-20964.12
2019-01-20T07:20:12.709Z,-20960.25
2019-01-20T07:22:40.979Z,-20961.55
2019-01-20T07:25:09.398Z,-20969.71
2019-01-20T07:27:37.654Z,-20964.55
2019-01-20T07:30:15.051Z,-20958.54
2019-01-20T07:32:43.371Z,-20958.54
2019-01-20T07:35:11.900Z,-20953.09
2019-01-20T07:37:40.243Z,-20953.09
2019-01-20T07:40:11.436Z,-20965.55
2019-01-20T07:42:39.706Z,-20963.12
2019-01-20T07:45:10.507Z,-20964.12
2019-01-20T07:47:38.831Z,-20946.36
2019-01-20T07:50:10.284Z,-20946.36
2019-01-20T07:52:38.539Z,-20950.37
2019-01-20T07:55:09.036Z,-20965.70
2019-01-20T07:57:37.292Z,-20976.29
2019-01-20T08:00:14.055Z,-20977.58
2019-01-20T08:02:42.317Z,-20977.58
2019-01-20T08:05:10.951Z,-20966.13
2019-01-20T08:07:39.224Z,-20977.29
2019-01-20T08:10:13.489Z,-20969.85
2019-01-20T08:12:41.826Z,-20972.28
2019-01-20T08:15:12.713Z,-20990.30
2019-01-20T08:17:41.002Z,-20990.30
2019-01-20T08:20:12.419Z,-20995.60
2019-01-20T08:22:40.706Z,-20983.01
2019-01-20T08:25:10.491Z,-20994.60
2019-01-20T08:27:38.791Z,-20990.02
2019-01-20T08:30:13.231Z,-21000.18
2019-01-20T08:32:41.479Z,-20992.88
2019-01-20T08:35:12.108Z,-20993.88
2019-01-20T08:37:40.415Z,-21005.61
2019-01-20T08:40:14.520Z,-21005.61
2019-01-20T08:42:42.764Z,-21000.60
2019-01-20T08:45:16.765Z,-21007.90
2019-01-20T08:47:46.516Z,-21016.19
2019-01-20T08:50:14.855Z,-21011.33
2019-01-20T08:52:43.131Z,-21024.19
2019-01-20T08:55:11.542Z,-21019.91
2019-01-20T08:57:39.810Z,-20999.03
2019-01-20T09:00:14.209Z,-20980.58
2019-01-20T09:02:42.507Z,-21017.62
2019-01-20T09:05:11.884Z,-21022.48
2019-01-20T09:07:40.148Z,-21015.19
2019-01-20T09:10:11.594Z,-21006.18
2019-01-20T09:12:40.358Z,-21017.34
2019-01-20T09:15:09.160Z,-21001.75
2019-01-20T09:17:37.510Z,-20991.31
2019-01-20T09:20:11.341Z,-21008.61
2019-01-20T09:22:39.636Z,-21018.77
2019-01-20T09:25:10.544Z,-21035.19
2019-01-20T09:27:38.839Z,-21031.34
2019-01-20T09:30:16.210Z,-21043.33
2019-01-20T09:32:44.512Z,-21001.03
2019-01-20T09:35:12.919Z,-21023.19
2019-01-20T09:37:41.238Z,-21039.76
2019-01-20T09:40:12.283Z,-21045.32
2019-01-20T09:42:40.559Z,-21050.61
2019-01-20T09:45:22.746Z,-21031.05
2019-01-20T09:47:51.007Z,-21045.90
2019-01-20T09:50:19.344Z,-21063.16
2019-01-20T09:52:47.697Z,-21092.39
2019-01-20T09:55:15.946Z,-21076.14
2019-01-20T09:57:44.705Z,-21087.41
2019-01-20T10:00:21.497Z,-21064.16
2019-01-20T10:02:49.751Z,-21059.74
2019-01-20T10:05:18.031Z,-21065.73
2019-01-20T10:07:46.358Z,-21084.13
2019-01-20T10:10:18.437Z,-21073.57
2019-01-20T10:12:46.707Z,-21058.17
2019-01-20T10:15:17.482Z,-21063.73
2019-01-20T10:17:45.755Z,-21075.14
2019-01-20T10:20:17.126Z,-21084.41
2019-01-20T10:22:45.459Z,-21065.87
2019-01-20T10:25:15.137Z,-21072.57
2019-01-20T10:27:43.613Z,-21060.31
2019-01-20T10:30:17.750Z,-21085.27
2019-01-20T10:32:48.011Z,-21088.97
2019-01-20T10:35:16.384Z,-21087.98
2019-01-20T10:37:44.751Z,-21101.37
2019-01-20T10:40:13.139Z,-21073.43
2019-01-20T10:42:41.514Z,-21044.47
2019-01-20T10:45:10.672Z,-21080.99
2019-01-20T10:47:38.952Z,-21084.27
2019-01-20T10:50:12.552Z,-21069.30
2019-01-20T10:52:40.810Z,-21074.86
2019-01-20T10:55:09.147Z,-21090.54
2019-01-20T10:57:37.466Z,-21074.71
2019-01-20T11:00:23.928Z,-21045.18
2019-01-20T11:02:52.284Z,-21067.87
2019-01-20T11:05:25.025Z,-21068.30
2019-01-20T11:07:50.591Z,-21076.43
2019-01-20T11:10:18.944Z,-21075.28
2019-01-20T11:12:47.233Z,-21065.02
2019-01-20T11:15:16.919Z,-21058.89
2019-01-20T11:17:45.270Z,-21064.45
2019-01-20T11:20:21.349Z,-21081.70
2019-01-20T11:22:49.628Z,-21060.88
2019-01-20T11:25:25.831Z,-21055.17
2019-01-20T11:27:54.102Z,-21060.46
2019-01-20T11:30:22.441Z,-21047.61
2019-01-20T11:32:50.726Z,-21043.04
2019-01-20T11:35:19.954Z,-21070.44
2019-01-20T11:37:48.700Z,-21087.98
2019-01-20T11:40:16.978Z,-21053.89
2019-01-20T11:42:45.307Z,-21076.86
2019-01-20T11:45:16.781Z,-21067.59
2019-01-20T11:47:45.025Z,-21078.14
2019-01-20T11:50:13.737Z,-21101.09
2019-01-20T11:52:42.028Z,-21093.39
2019-01-20T11:55:16.345Z,-21106.07
2019-01-20T11:57:44.604Z,-21114.90
2019-01-20T12:00:28.047Z,-21127.13
2019-01-20T12:02:56.366Z,-21140.52
2019-01-20T12:05:24.741Z,-21153.03
2019-01-20T12:07:54.259Z,-21194.21
2019-01-20T12:10:22.562Z,-21134.11
2019-01-20T12:12:52.487Z,-21176.89
2019-01-20T12:15:20.872Z,-21201.59
2019-01-20T12:17:49.266Z,-21204.15
2019-01-20T12:20:17.829Z,-21221.73
2019-01-20T12:22:46.072Z,-21251.76
2019-01-20T12:25:19.081Z,-21252.18
2019-01-20T12:27:47.347Z,-21247.23
2019-01-20T12:30:18.791Z,-21240.15
2019-01-20T12:32:47.092Z,-21202.30
2019-01-20T12:35:15.442Z,-21248.79
2019-01-20T12:37:43.726Z,-21246.66
2019-01-20T12:40:15.296Z,-21279.21
2019-01-20T12:42:43.581Z,-21301.54
2019-01-20T12:45:11.866Z,-21282.46
2019-01-20T12:47:40.154Z,-21263.23
2019-01-20T12:50:16.939Z,-21293.49
2019-01-20T12:52:45.222Z,-21288.54
2019-01-20T12:55:15.031Z,-21300.69
2019-01-20T12:57:43.390Z,-21317.64
2019-01-20T13:00:19.355Z,-21316.37
2019-01-20T13:02:48.075Z,-21341.76
2019-01-20T13:05:16.564Z,-21319.05
2019-01-20T13:07:44.859Z,-21368.39
2019-01-20T13:10:18.472Z,-21358.25
2019-01-20T13:12:47.129Z,-21332.45
2019-01-20T13:15:18.117Z,-21280.34
2019-01-20T13:17:46.386Z,-21321.73
2019-01-20T13:20:20.310Z,-21355.58
2019-01-20T13:22:48.657Z,-21348.25
2019-01-20T13:25:19.864Z,-21357.97
2019-01-20T13:27:48.159Z,-21315.94
2019-01-20T13:30:21.461Z,-21286.28
2019-01-20T13:32:49.849Z,-21330.34
2019-01-20T13:35:19.480Z,-21335.84
2019-01-20T13:37:50.124Z,-21364.45
2019-01-20T13:40:27.191Z,-21329.21
2019-01-20T13:42:55.557Z,-21338.52
2019-01-20T13:45:23.838Z,-21356.14
2019-01-20T13:47:52.115Z,-21346.70
2019-01-20T13:50:20.575Z,-21333.30
2019-01-20T13:52:48.920Z,-21355.71
2019-01-20T13:55:17.909Z,-21337.67
2019-01-20T13:57:46.207Z,-21325.68
2019-01-20T14:00:21.468Z,-21318.91
2019-01-20T14:02:49.747Z,-21308.04
2019-01-20T14:05:18.079Z,-21257.43
2019-01-20T14:07:46.378Z,-21292.07
2019-01-20T14:10:17.604Z,-21248.51
2019-01-20T14:12:45.945Z,-21239.44
2019-01-20T14:15:15.568Z,-21220.74
2019-01-20T14:17:44.749Z,-21193.51
2019-01-20T14:20:15.866Z,-21195.63
2019-01-20T14:22:44.196Z,-21208.12
2019-01-20T14:25:21.017Z,-21192.09
2019-01-20T14:27:49.349Z,-21186.84
2019-01-20T14:30:31.892Z,-21184.71
2019-01-20T14:33:00.261Z,-21152.74
2019-01-20T14:35:28.611Z,-21153.88
2019-01-20T14:37:56.886Z,-21190.39
2019-01-20T14:40:25.299Z,-21164.96
2019-01-20T14:42:53.927Z,-21156.29
2019-01-20T14:45:22.306Z,-21151.89
2019-01-20T14:47:50.565Z,-21133.40
2019-01-20T14:50:26.956Z,-21147.91
2019-01-20T14:52:55.390Z,-21140.66
2019-01-20T14:55:24.313Z,-21139.66
2019-01-20T14:57:52.596Z,-21124.86
2019-01-20T15:00:30.020Z,-21131.26
2019-01-20T15:02:58.370Z,-21131.98
2019-01-20T15:05:29.031Z,-21136.10
2019-01-20T15:07:58.853Z,-21140.52
2019-01-20T15:10:27.219Z,-21134.11
2019-01-20T15:12:55.494Z,-21137.53
2019-01-20T15:15:29.430Z,-21118.88
2019-01-20T15:17:57.727Z,-21124.00
2019-01-20T15:20:29.890Z,-21123.72
2019-01-20T15:22:58.252Z,-21121.44
2019-01-20T15:25:26.530Z,-21115.61
2019-01-20T15:27:54.809Z,-21124.43
2019-01-20T15:30:34.392Z,-21127.85
2019-01-20T15:33:04.608Z,-21105.50
2019-01-20T15:35:32.956Z,-21127.28
2019-01-20T15:38:01.286Z,-21119.17
2019-01-20T15:40:29.713Z,-21131.84
2019-01-20T15:42:57.985Z,-21110.20
2019-01-20T15:45:26.330Z,-21105.36
2019-01-20T15:47:54.668Z,-21104.50
2019-01-20T15:50:25.357Z,-21091.11
2019-01-20T15:52:53.711Z,-21085.27
2019-01-20T15:55:22.018Z,-21108.63
2019-01-20T15:57:50.420Z,-21109.91
2019-01-20T16:00:26.899Z,-21099.52
2019-01-20T16:02:55.257Z,-21102.08
2019-01-20T16:05:24.396Z,-21095.24
2019-01-20T16:07:52.650Z,-21091.40
2019-01-20T16:10:20.930Z,-21085.70
2019-01-20T16:12:49.183Z,-21082.41
2019-01-20T16:15:24.594Z,-21086.84
2019-01-20T16:17:54.412Z,-21100.80
2019-01-20T16:20:23.035Z,-21085.41
2019-01-20T16:22:51.777Z,-21093.11
2019-01-20T16:25:23.240Z,-21087.84
2019-01-20T16:27:51.573Z,-21094.68
2019-01-20T16:30:22.608Z,-21071.15
2019-01-20T16:32:51.141Z,-21071.01
2019-01-20T16:35:22.576Z,-21086.70
2019-01-20T16:37:51.190Z,-21075.14
2019-01-20T16:40:21.710Z,-21091.54
2019-01-20T16:42:49.988Z,-21095.24
2019-01-20T16:45:31.965Z,-21093.11
2019-01-20T16:47:57.478Z,-21078.14
2019-01-20T16:50:26.047Z,-21052.18
2019-01-20T16:52:54.829Z,-21084.27
2019-01-20T16:55:23.358Z,-21095.81
2019-01-20T16:57:51.729Z,-21068.87
2019-01-20T17:00:29.171Z,-21072.15
2019-01-20T17:02:57.566Z,-21060.74
2019-01-20T17:05:27.232Z,-21077.28
2019-01-20T17:07:55.754Z,-21081.41
2019-01-20T17:10:32.434Z,-21079.85
2019-01-20T17:13:00.753Z,-21068.58
2019-01-20T17:15:39.089Z,-21054.03
2019-01-20T17:18:01.884Z,-21067.16
2019-01-20T17:20:30.162Z,-21066.59
2019-01-20T17:22:58.420Z,-21067.59
2019-01-20T17:25:26.698Z,-21054.46
2019-01-20T17:27:54.955Z,-21065.16
2019-01-20T17:30:31.676Z,-21077.00
2019-01-20T17:32:59.966Z,-21059.60
2019-01-20T17:35:28.295Z,-21051.32
2019-01-20T17:37:56.626Z,-21062.16
2019-01-20T17:40:28.717Z,-21066.87
2019-01-20T17:42:57.440Z,-21057.46
2019-01-20T17:45:37.583Z,-21050.04
2019-01-20T17:48:06.042Z,-21058.60
2019-01-20T17:50:36.862Z,-21068.01
2019-01-20T17:53:06.842Z,-21054.46
2019-01-20T17:55:35.372Z,-21056.17
2019-01-20T17:58:04.120Z,-21061.74
2019-01-20T18:00:38.411Z,-21046.32
2019-01-20T18:03:07.735Z,-21050.32
2019-01-20T18:05:36.279Z,-21038.62
2019-01-20T18:08:04.737Z,-21047.32
2019-01-20T18:10:33.045Z,-21048.89
2019-01-20T18:13:01.370Z,-21033.05
2019-01-20T18:15:29.747Z,-21049.89
2019-01-20T18:17:58.965Z,-21046.18
2019-01-20T18:20:34.002Z,-21044.61
2019-01-20T18:23:02.334Z,-21056.17
2019-01-20T18:25:30.638Z,-21039.90
2019-01-20T18:27:58.975Z,-21044.47
2019-01-20T18:30:29.818Z,-21047.04
2019-01-20T18:32:58.094Z,-21044.18
2019-01-20T18:35:27.704Z,-21041.76
2019-01-20T18:37:55.970Z,-21031.91
2019-01-20T18:40:25.900Z,-21051.46
2019-01-20T18:42:54.403Z,-21053.89
2019-01-20T18:45:33.563Z,-21041.05
2019-01-20T18:48:01.830Z,-21053.89
2019-01-20T18:50:32.749Z,-21045.90
2019-01-20T18:53:01.028Z,-21034.76
2019-01-20T18:55:29.320Z,-21025.91
2019-01-20T18:57:57.678Z,-21010.04
2019-01-20T19:00:34.868Z,-21015.90
2019-01-20T19:03:03.159Z,-21017.20
2019-01-20T19:05:31.454Z,-21001.32
2019-01-20T19:07:59.977Z,-21029.48
2019-01-20T19:10:28.319Z,-21032.05
2019-01-20T19:12:56.574Z,-21035.19
2019-01-20T19:15:25.006Z,-21020.48
2019-01-20T19:17:53.558Z,-21038.62
2019-01-20T19:20:25.487Z,-21023.48
2019-01-20T19:22:55.926Z,-21032.34
2019-01-20T19:25:24.289Z,-21024.76
2019-01-20T19:27:52.624Z,-21031.76
2019-01-20T19:30:31.019Z,-21009.89
2019-01-20T19:32:59.321Z,-21023.48
2019-01-20T19:35:28.354Z,-20999.75
2019-01-20T19:37:56.785Z,-20997.32
2019-01-20T19:40:25.075Z,-21023.62
2019-01-20T19:42:53.380Z,-21025.19
2019-01-20T19:45:22.225Z,-21034.05
2019-01-20T19:47:50.536Z,-21028.76
2019-01-20T19:50:19.317Z,-20987.30
2019-01-20T19:52:47.661Z,-21005.75
2019-01-20T19:55:30.241Z,-21015.19
2019-01-20T19:57:58.697Z,-21018.91
2019-01-20T20:00:29.520Z,-21000.18
2019-01-20T20:02:57.789Z,-21001.61
2019-01-20T20:05:26.338Z,-21019.91
2019-01-20T20:07:55.561Z,-21020.05
2019-01-20T20:10:25.868Z,-21030.19
2019-01-20T20:12:55.151Z,-21018.77
2019-01-20T20:15:25.303Z,-21014.90
2019-01-20T20:17:53.645Z,-21017.34
2019-01-20T20:20:22.383Z,-21018.48
2019-01-20T20:22:50.732Z,-21023.05
2019-01-20T20:25:23.945Z,-21033.91
2019-01-20T20:27:53.024Z,-21026.05
2019-01-20T20:30:24.051Z,-21030.19
2019-01-20T20:32:52.402Z,-21023.05
2019-01-20T20:35:20.753Z,-21030.19
2019-01-20T20:37:49.068Z,-21021.05
2019-01-20T20:40:20.750Z,-21030.48
2019-01-20T20:42:49.215Z,-21026.19
2019-01-20T20:45:20.078Z,-21034.19
2019-01-20T20:47:48.417Z,-21017.48
2019-01-20T20:50:17.827Z,-21019.77
2019-01-20T20:52:46.446Z,-21026.19
2019-01-20T20:55:14.733Z,-21032.62
2019-01-20T20:57:43.063Z,-21039.33
2019-01-20T21:00:14.255Z,-21030.48
2019-01-20T21:02:42.625Z,-21026.48
2019-01-20T21:05:11.145Z,-21031.19
2019-01-20T21:07:39.529Z,-21037.76
2019-01-20T21:10:13.727Z,-21010.75
2019-01-20T21:12:42.000Z,-21026.05
2019-01-20T21:15:15.575Z,-21017.48
2019-01-20T21:17:48.131Z,-21025.48
2019-01-20T21:20:19.102Z,-21016.33
2019-01-20T21:22:47.737Z,-21023.91
2019-01-20T21:25:16.093Z,-21022.62
2019-01-20T21:27:44.358Z,-21024.62
2019-01-20T21:30:17.911Z,-21031.19
2019-01-20T21:32:46.190Z,-20987.59
2019-01-20T21:35:14.515Z,-21008.61
2019-01-20T21:37:42.867Z,-21013.90
2019-01-20T21:40:13.862Z,-21020.34
2019-01-20T21:42:42.148Z,-21020.91
2019-01-20T21:45:12.713Z,-21027.34
2019-01-20T21:47:41.001Z,-21023.34
2019-01-20T21:50:15.102Z,-21011.18
2019-01-20T21:52:43.394Z,-21032.62
2019-01-20T21:55:11.732Z,-21006.18
2019-01-20T21:57:40.047Z,-21013.90
2019-01-20T22:00:11.640Z,-21018.34
2019-01-20T22:02:39.921Z,-20985.16
2019-01-20T22:05:10.023Z,-21017.62
2019-01-20T22:07:38.286Z,-21002.75
2019-01-20T22:10:09.731Z,-20988.02
2019-01-20T22:12:38.082Z,-20995.03
2019-01-20T22:15:07.797Z,-20998.03
2019-01-20T22:17:36.148Z,-21004.61
2019-01-20T22:20:07.331Z,-21002.18
2019-01-20T22:22:35.624Z,-20996.03
2019-01-20T22:25:05.018Z,-21010.32
2019-01-20T22:27:33.309Z,-21013.33
2019-01-20T22:30:01.567Z,-20986.16
2019-01-20T22:32:29.973Z,-21023.05
2019-01-20T22:34:58.264Z,-21014.47
2019-01-20T22:37:26.575Z,-21011.47
2019-01-20T22:39:54.848Z,-21005.90
2019-01-20T22:42:23.180Z,-20978.15
2019-01-20T22:44:51.461Z,-20996.89
2019-01-20T22:47:19.717Z,-21012.90
2019-01-20T22:49:47.987Z,-21001.18
2019-01-20T22:52:16.261Z,-21004.89
2019-01-20T22:54:44.536Z,-20988.02
2019-01-20T22:57:12.822Z,-20999.03
2019-01-20T22:59:41.089Z,-20974.28
2019-01-20T23:02:09.443Z,-21001.89
2019-01-20T23:04:37.716Z,-20992.46
2019-01-20T23:07:06.003Z,-21007.47
2019-01-20T23:09:34.260Z,-20999.18
2019-01-20T23:12:02.577Z,-21005.47
2019-01-20T23:14:30.853Z,-20985.73
2019-01-20T23:16:59.130Z,-20978.86
2019-01-20T23:19:27.382Z,-20984.44
2019-01-20T23:21:55.653Z,-21000.03
2019-01-20T23:24:23.930Z,-20991.60
2019-01-20T23:26:52.349Z,-20988.16
2019-01-20T23:29:20.685Z,-20961.83
2019-01-20T23:31:48.965Z,-20969.99
2019-01-20T23:34:17.243Z,-20959.25
2019-01-20T23:36:45.512Z,-20961.55
2019-01-20T23:39:13.765Z,-20949.80
2019-01-20T23:41:42.031Z,-20954.24
2019-01-20T23:44:10.280Z,-20967.55
2019-01-20T23:46:38.528Z,-20967.55
2019-01-20T23:49:06.881Z,-20965.13
2019-01-20T23:51:35.138Z,-20976.57
2019-01-20T23:54:03.835Z,-20973.00
2019-01-20T23:56:32.109Z,-20968.99
2019-01-20T23:59:00.413Z,-20964.41
